Saginaw Browne, MI

3:32 PM EDT on April 19, 2015 (GMT -0400)
Barstow | | Change Station
CLOSE
Current Station
Airport
Location: Midland,
Elevation: 636 ft
Nearby Weather Stations

Elev 636 ft 43.66 °N, 84.26 °W | Updated 18 minutes ago

Mostly Cloudy
Mostly Cloudy
58 °F
Feels Like 58 °F
N
20
Wind Variable Wind from ENE
Gusts 26 mph

Today
High -- | Low -- °F
--% Chance of Precip.
Yesterday
High -- | Low -- °F
Precip. -- in
6:46 AM 8:23 PM
New Moon, 2% visible
Pressure 29.84 in
Visibility 10.0 miles
Clouds Clear
Dew Point 34 °F
Humidity 40%
Rainfall 0.00 in
Snow Depth Not available.
UV 8 out of 12
Pollen 9.80 out of 12
Air Quality Not available.
Flu Activity Regional
METAR KIKW 191914Z AUTO 07017G23KT 10SM CLR 15/01 A2984 RMK AO2 T01470012

More Conditions Fewer Conditions

Pressure 29.84 in
Visibility 10.0 miles
Clouds Clear
Dew Point 34 °F
Humidity 40%
Rainfall 0.00 in
Snow Depth Not available.
UV 8 out of 12
Pollen 9.80 out of 12
Air Quality Not available.
Flu Activity Regional
METAR KIKW 191914Z AUTO 07017G23KT 10SM CLR 15/01 A2984 RMK AO2 T01470012

More Conditions Fewer Conditions

10-Day Weather Forecast

Almanac

Astronomy

Apr. 19, 2015 Rise Set
Actual Time
Civil Twilight
Nautical Twilight
Astronomical Twilight
Moon
Length of Visible Light
Length of Day
Tomorrow will be .
, % of the Moon is Illuminated

Today's Extremes

State Highs State Lows

Community

WunderPhotos

Upload Photos

1,814,944 photos uploaded!

WunderBlogs® & News

Nearby

Air Quality

  Air Quality AQ Index Pollutant
Not available.

Snow Depth

Station Depth Elevation

Earthquake Activity

City Distance Mag. Time & Date
Minimum magnitude displayed is 2.5.

Coastal Water Temperatures

Place Temperature

Stations

Nearby Weather Stations

Station Location Temp. Windchill Dew Point Humidity Wind Precip. Elev Updated Type